createdAt,value
2018-07-30T00:00:37.383Z,75.30
2018-07-30T00:03:11.543Z,75.30
2018-07-30T00:05:45.716Z,75.70
2018-07-30T00:08:19.688Z,76.10
2018-07-30T00:10:54.347Z,76.30
2018-07-30T00:13:28.283Z,76.60
2018-07-30T00:16:02.357Z,76.50
2018-07-30T00:18:36.826Z,76.50
2018-07-30T00:21:10.904Z,76.40
2018-07-30T00:23:44.767Z,76.70
2018-07-30T00:26:18.604Z,77.10
2018-07-30T00:28:52.434Z,77.10
2018-07-30T00:31:26.838Z,77.10
2018-07-30T00:34:00.979Z,77.40
2018-07-30T00:36:35.092Z,78.00
2018-07-30T00:39:10.597Z,77.70
2018-07-30T00:44:18.746Z,77.90
2018-07-30T00:46:52.668Z,78.10
2018-07-30T00:49:26.674Z,78.20
2018-07-30T00:52:00.931Z,78.10
2018-07-30T00:54:34.826Z,78.40
2018-07-30T00:57:08.876Z,78.20
2018-07-30T00:59:42.778Z,78.20
2018-07-30T01:02:16.741Z,78.60
2018-07-30T01:04:50.947Z,78.40
2018-07-30T01:07:25.106Z,78.40
2018-07-30T01:12:32.851Z,78.20
2018-07-30T01:15:07.276Z,78.00
2018-07-30T01:17:41.387Z,78.10
2018-07-30T01:20:15.435Z,78.10
2018-07-30T01:22:49.305Z,77.70
2018-07-30T01:25:23.103Z,77.30
2018-07-30T01:27:57.115Z,77.40
2018-07-30T01:30:30.927Z,77.10
2018-07-30T01:33:04.938Z,77.20
2018-07-30T01:35:39.328Z,77.80
2018-07-30T01:38:13.243Z,77.60
2018-07-30T01:40:47.213Z,77.50
2018-07-30T01:45:55.256Z,77.70
2018-07-30T01:48:29.422Z,77.50
2018-07-30T01:51:03.464Z,77.30
2018-07-30T01:56:11.492Z,77.70
2018-07-30T02:01:19.642Z,77.20
2018-07-30T02:03:53.908Z,77.20
2018-07-30T02:06:27.891Z,76.70
2018-07-30T02:09:02.002Z,76.10
2018-07-30T02:11:35.706Z,76.30
2018-07-30T02:14:09.934Z,76.50
2018-07-30T02:16:43.894Z,77.30
2018-07-30T02:19:17.787Z,77.30
2018-07-30T02:21:51.726Z,77.70
2018-07-30T02:24:25.672Z,78.20
2018-07-30T02:26:59.863Z,78.30
2018-07-30T02:29:33.977Z,78.20
2018-07-30T02:32:07.983Z,78.30
2018-07-30T02:34:42.703Z,78.30
2018-07-30T02:37:17.108Z,78.50
2018-07-30T02:39:51.022Z,78.70
2018-07-30T02:42:25.017Z,79.80
2018-07-30T02:44:59.143Z,79.30
2018-07-30T02:47:32.944Z,79.40
2018-07-30T02:50:07.202Z,79.70
2018-07-30T02:52:41.351Z,79.90
2018-07-30T02:55:15.467Z,79.90
2018-07-30T03:00:23.103Z,79.90
2018-07-30T03:02:57.254Z,80.00
2018-07-30T03:05:31.446Z,80.00
2018-07-30T03:08:05.222Z,80.00
2018-07-30T03:10:39.827Z,80.10
2018-07-30T03:13:13.917Z,80.10
2018-07-30T03:15:48.223Z,80.30
2018-07-30T03:18:22.458Z,80.60
2018-07-30T03:20:56.274Z,80.50
2018-07-30T03:23:30.401Z,80.60
2018-07-30T03:26:04.242Z,80.80
2018-07-30T03:28:38.574Z,80.90
2018-07-30T03:31:12.778Z,81.10
2018-07-30T03:33:46.934Z,81.40
2018-07-30T03:36:20.906Z,81.70
2018-07-30T03:38:54.889Z,81.90
2018-07-30T03:41:28.978Z,81.90
2018-07-30T03:44:03.054Z,82.10
2018-07-30T03:46:37.053Z,82.00
2018-07-30T03:49:11.103Z,82.10
2018-07-30T03:51:45.328Z,81.80
2018-07-30T03:54:19.183Z,81.70
2018-07-30T03:56:53.307Z,81.70
2018-07-30T03:59:27.111Z,81.70
2018-07-30T04:02:01.041Z,82.10
2018-07-30T04:04:35.068Z,82.10
2018-07-30T04:07:08.904Z,82.40
2018-07-30T04:09:42.792Z,82.30
2018-07-30T04:12:16.849Z,82.10
2018-07-30T04:14:51.071Z,81.90
2018-07-30T04:17:25.587Z,81.70
2018-07-30T04:19:59.828Z,81.80
2018-07-30T04:22:33.909Z,81.70
2018-07-30T04:25:07.982Z,81.60
2018-07-30T04:27:42.610Z,81.50
2018-07-30T04:30:16.551Z,81.50
2018-07-30T04:32:50.701Z,81.60
2018-07-30T04:35:24.827Z,81.60
2018-07-30T04:37:58.737Z,81.20
2018-07-30T04:40:32.626Z,81.60
2018-07-30T04:43:06.713Z,81.50
2018-07-30T04:45:40.621Z,81.20
2018-07-30T04:48:14.526Z,80.90
2018-07-30T04:50:48.769Z,80.70
2018-07-30T04:53:22.621Z,80.90
2018-07-30T04:55:56.728Z,80.90
2018-07-30T04:58:30.582Z,80.70
2018-07-30T05:01:04.706Z,80.90
2018-07-30T05:03:38.868Z,81.00
2018-07-30T05:06:12.718Z,81.10
2018-07-30T05:08:46.727Z,80.80
2018-07-30T05:11:20.825Z,80.10
2018-07-30T05:13:54.803Z,79.40
2018-07-30T05:16:28.677Z,79.20
2018-07-30T05:19:02.482Z,78.50
2018-07-30T05:21:36.409Z,78.70
2018-07-30T05:24:10.327Z,78.40
2018-07-30T05:26:44.403Z,78.30
2018-07-30T05:29:18.343Z,77.40
2018-07-30T05:31:52.254Z,76.60
2018-07-30T05:34:26.412Z,76.00
2018-07-30T05:37:00.385Z,76.00
2018-07-30T05:39:34.217Z,75.80
2018-07-30T05:42:08.367Z,75.00
2018-07-30T05:44:42.455Z,74.60
2018-07-30T05:47:16.251Z,74.50
2018-07-30T05:49:50.384Z,74.20
2018-07-30T05:52:24.712Z,73.40
2018-07-30T05:57:32.550Z,72.70
2018-07-30T06:00:06.925Z,72.30
2018-07-30T06:02:40.755Z,73.20
2018-07-30T06:05:14.913Z,74.30
2018-07-30T06:07:48.795Z,73.40
2018-07-30T06:10:22.890Z,71.90
2018-07-30T06:12:57.482Z,72.60
2018-07-30T06:15:31.658Z,73.60
2018-07-30T06:18:05.710Z,73.40
2018-07-30T06:20:39.702Z,73.70
2018-07-30T06:23:14.099Z,72.50
2018-07-30T06:25:48.048Z,73.10
2018-07-30T06:28:22.185Z,73.80
2018-07-30T06:30:56.342Z,72.50
2018-07-30T06:33:30.325Z,73.10
2018-07-30T06:36:04.393Z,70.10
2018-07-30T06:38:38.407Z,70.40
2018-07-30T06:41:12.382Z,69.50
2018-07-30T06:43:46.423Z,67.10
2018-07-30T06:46:20.501Z,66.10
2018-07-30T06:48:54.595Z,66.30
2018-07-30T06:51:28.574Z,66.40
2018-07-30T06:54:02.740Z,65.90
2018-07-30T06:56:36.564Z,63.70
2018-07-30T07:01:45.608Z,62.80
2018-07-30T07:04:19.792Z,61.80
2018-07-30T07:06:53.753Z,61.70
2018-07-30T07:09:27.604Z,62.70
2018-07-30T07:12:01.899Z,62.20
2018-07-30T07:14:36.562Z,61.00
2018-07-30T07:17:10.588Z,60.30
2018-07-30T07:19:44.919Z,58.80
2018-07-30T07:22:18.759Z,58.30
2018-07-30T07:24:53.082Z,59.20
2018-07-30T07:27:27.075Z,58.20
2018-07-30T07:30:00.993Z,58.50
2018-07-30T07:32:34.776Z,59.70
2018-07-30T07:35:09.060Z,60.30
2018-07-30T07:37:43.238Z,59.40
2018-07-30T07:40:17.061Z,58.50
2018-07-30T07:42:51.044Z,56.30
2018-07-30T07:45:25.364Z,56.20
2018-07-30T07:47:59.247Z,55.10
2018-07-30T07:50:33.911Z,54.70
2018-07-30T07:53:08.203Z,55.40
2018-07-30T07:55:42.567Z,54.60
2018-07-30T07:58:17.225Z,54.10
2018-07-30T08:00:51.337Z,53.50
2018-07-30T08:03:25.883Z,54.30
2018-07-30T08:05:59.878Z,54.60
2018-07-30T08:08:33.929Z,52.60
2018-07-30T08:11:08.105Z,53.10
2018-07-30T08:13:42.179Z,52.30
2018-07-30T08:16:16.217Z,52.30
2018-07-30T08:18:51.449Z,51.50
2018-07-30T08:21:25.637Z,51.80
2018-07-30T08:23:59.573Z,52.20
2018-07-30T08:26:33.663Z,52.10
2018-07-30T08:29:07.823Z,51.50
2018-07-30T08:31:41.880Z,49.40
2018-07-30T08:34:15.842Z,48.90
2018-07-30T08:36:49.780Z,49.30
2018-07-30T08:39:23.658Z,49.90
2018-07-30T08:41:59.201Z,48.70
2018-07-30T08:44:33.203Z,47.60
2018-07-30T08:47:07.775Z,47.90
2018-07-30T08:49:41.809Z,47.50
2018-07-30T08:52:15.956Z,47.70
2018-07-30T08:54:49.953Z,47.70
2018-07-30T08:57:24.080Z,48.00
2018-07-30T08:59:57.837Z,47.30
2018-07-30T09:02:32.492Z,46.20
2018-07-30T09:05:06.401Z,46.10
2018-07-30T09:07:40.218Z,46.30
2018-07-30T09:10:14.408Z,45.70
2018-07-30T09:12:48.899Z,45.30
2018-07-30T09:15:22.847Z,45.20
2018-07-30T09:17:56.909Z,46.30
2018-07-30T09:20:31.069Z,46.40
2018-07-30T09:23:05.390Z,45.90
2018-07-30T09:25:39.968Z,45.70
2018-07-30T09:28:13.844Z,46.50
2018-07-30T09:30:47.991Z,47.30
2018-07-30T09:35:56.360Z,45.60
2018-07-30T09:38:31.002Z,46.00
2018-07-30T09:41:05.011Z,45.50
2018-07-30T09:43:39.006Z,44.70
2018-07-30T09:48:47.491Z,45.80
2018-07-30T09:51:21.547Z,46.10
2018-07-30T09:53:55.513Z,45.50
2018-07-30T09:56:30.287Z,44.40
2018-07-30T09:59:04.072Z,43.90
2018-07-30T10:01:38.188Z,44.30
2018-07-30T10:04:12.245Z,43.00
2018-07-30T10:06:46.461Z,42.60
2018-07-30T10:09:20.376Z,42.30
2018-07-30T10:11:55.898Z,42.40
2018-07-30T10:14:29.918Z,41.90
2018-07-30T10:17:03.932Z,41.70
2018-07-30T10:19:38.124Z,42.00
2018-07-30T10:22:12.393Z,42.10
2018-07-30T10:24:46.804Z,41.30
2018-07-30T10:27:21.856Z,42.10
2018-07-30T10:29:56.148Z,42.70
2018-07-30T10:32:30.130Z,42.30
2018-07-30T10:35:04.298Z,42.00
2018-07-30T10:37:41.988Z,42.30
2018-07-30T10:40:16.317Z,41.80
2018-07-30T10:42:50.540Z,41.50
2018-07-30T10:45:24.438Z,41.60
2018-07-30T10:47:58.397Z,41.30
2018-07-30T10:50:32.505Z,42.60
2018-07-30T10:53:07.341Z,42.40
2018-07-30T10:55:41.349Z,42.20
2018-07-30T10:58:15.558Z,41.60
2018-07-30T11:00:49.717Z,41.00
2018-07-30T11:03:23.752Z,40.80
2018-07-30T11:05:58.387Z,41.20
2018-07-30T11:08:32.394Z,42.20
2018-07-30T11:11:06.731Z,41.60
2018-07-30T11:13:41.054Z,41.10
2018-07-30T11:16:15.312Z,41.10
2018-07-30T11:18:49.176Z,41.00
2018-07-30T11:21:23.980Z,40.70
2018-07-30T11:23:57.924Z,40.10
2018-07-30T11:26:31.984Z,40.00
2018-07-30T11:29:06.127Z,39.60
2018-07-30T11:31:40.080Z,38.60
2018-07-30T11:34:14.126Z,39.20
2018-07-30T11:36:48.311Z,39.10
2018-07-30T11:39:22.252Z,39.40
2018-07-30T11:41:59.221Z,39.70
2018-07-30T11:44:33.131Z,39.30
2018-07-30T11:47:07.119Z,38.20
2018-07-30T11:49:41.162Z,39.10
2018-07-30T11:54:48.809Z,38.50
2018-07-30T11:57:22.753Z,38.40
2018-07-30T11:59:56.848Z,38.80
2018-07-30T12:02:30.807Z,38.30
2018-07-30T12:05:05.109Z,38.20
2018-07-30T12:07:39.124Z,38.90
2018-07-30T12:10:13.179Z,39.00
2018-07-30T12:12:47.468Z,39.30
2018-07-30T12:15:21.672Z,39.80
2018-07-30T12:17:55.710Z,39.70
2018-07-30T12:20:29.926Z,39.80
2018-07-30T12:23:03.963Z,39.40
2018-07-30T12:25:38.102Z,39.20
2018-07-30T12:28:11.967Z,39.30
2018-07-30T12:30:46.035Z,39.00
2018-07-30T12:33:20.127Z,39.30
2018-07-30T12:35:54.622Z,39.30
2018-07-30T12:38:28.752Z,40.00
2018-07-30T12:41:02.739Z,39.30
2018-07-30T12:46:10.315Z,38.40
2018-07-30T12:48:44.349Z,38.50
2018-07-30T12:51:18.368Z,37.60
2018-07-30T12:53:52.332Z,37.80
2018-07-30T12:56:26.288Z,37.40
2018-07-30T12:59:00.164Z,36.30
2018-07-30T13:01:34.212Z,36.70
2018-07-30T13:04:08.072Z,36.60
2018-07-30T13:06:42.144Z,37.10
2018-07-30T13:09:16.299Z,37.00
2018-07-30T13:11:50.623Z,37.00
2018-07-30T13:14:24.686Z,37.40
2018-07-30T13:16:58.463Z,36.80
2018-07-30T13:19:32.414Z,37.00
2018-07-30T13:22:06.405Z,37.60
2018-07-30T13:24:40.387Z,37.80
2018-07-30T13:27:14.528Z,38.00
2018-07-30T13:29:48.581Z,38.20
2018-07-30T13:32:22.596Z,38.70
2018-07-30T13:34:56.653Z,39.50
2018-07-30T13:40:04.779Z,39.10
2018-07-30T13:42:38.824Z,38.80
2018-07-30T13:45:12.927Z,39.30
2018-07-30T13:47:47.041Z,39.50
2018-07-30T13:50:21.085Z,39.60
2018-07-30T13:52:55.236Z,40.60
2018-07-30T13:55:29.367Z,40.10
2018-07-30T13:58:03.651Z,40.30
2018-07-30T14:00:37.883Z,40.60
2018-07-30T14:03:11.988Z,40.40
2018-07-30T14:05:45.941Z,40.30
2018-07-30T14:08:20.266Z,40.50
2018-07-30T14:10:54.263Z,40.90
2018-07-30T14:13:28.557Z,41.30
2018-07-30T14:16:02.784Z,40.90
2018-07-30T14:18:36.592Z,40.00
2018-07-30T14:21:11.238Z,41.70
2018-07-30T14:23:45.450Z,41.00
2018-07-30T14:26:19.559Z,39.50
2018-07-30T14:28:53.756Z,38.20
2018-07-30T14:31:28.288Z,38.20
2018-07-30T14:34:02.823Z,38.10
2018-07-30T14:36:36.586Z,38.90
2018-07-30T14:39:11.028Z,39.70
2018-07-30T14:41:44.993Z,39.60
2018-07-30T14:44:19.140Z,40.80
2018-07-30T14:46:53.157Z,41.80
2018-07-30T14:49:27.031Z,42.10
2018-07-30T14:52:01.064Z,41.80
2018-07-30T14:54:35.272Z,41.60
2018-07-30T14:57:09.265Z,43.20
2018-07-30T14:59:43.451Z,45.40
2018-07-30T15:02:18.973Z,50.70
2018-07-30T15:04:53.741Z,51.70
2018-07-30T15:07:28.028Z,51.60
2018-07-30T15:10:02.392Z,53.30
2018-07-30T15:12:36.373Z,52.20
2018-07-30T15:15:10.551Z,53.50
2018-07-30T15:17:44.739Z,53.20
2018-07-30T15:20:18.731Z,50.10
2018-07-30T15:22:52.682Z,49.50
2018-07-30T15:25:26.770Z,48.90
2018-07-30T15:28:00.758Z,49.30
2018-07-30T15:30:34.778Z,49.40
2018-07-30T15:33:10.289Z,47.20
2018-07-30T15:35:44.128Z,47.00
2018-07-30T15:38:18.091Z,46.10
2018-07-30T15:43:26.298Z,43.10
2018-07-30T15:46:00.437Z,42.10
2018-07-30T15:51:08.768Z,41.00
2018-07-30T15:53:42.841Z,40.30
2018-07-30T15:56:17.403Z,39.30
2018-07-30T15:58:51.162Z,40.20
2018-07-30T16:01:25.740Z,40.80
2018-07-30T16:03:59.438Z,40.80
2018-07-30T16:06:34.537Z,38.90
2018-07-30T16:09:08.407Z,40.40
2018-07-30T16:14:16.177Z,39.80
2018-07-30T16:16:50.234Z,40.20
2018-07-30T16:19:24.913Z,40.60
2018-07-30T16:21:59.218Z,40.80
2018-07-30T16:24:33.608Z,41.20
2018-07-30T16:29:41.501Z,41.40
2018-07-30T16:32:15.672Z,42.30
2018-07-30T16:34:49.717Z,42.40
2018-07-30T16:37:24.145Z,42.90
2018-07-30T16:39:58.658Z,43.00
2018-07-30T16:42:33.046Z,43.50
2018-07-30T16:45:08.083Z,42.80
2018-07-30T16:47:42.093Z,43.00
2018-07-30T16:52:50.603Z,42.60
2018-07-30T16:55:24.765Z,40.60
2018-07-30T16:57:59.147Z,39.40
2018-07-30T17:00:33.669Z,38.50
2018-07-30T17:03:08.153Z,40.50
2018-07-30T17:05:42.377Z,38.20
2018-07-30T17:08:17.047Z,37.80
2018-07-30T17:10:51.282Z,37.60
2018-07-30T17:13:25.476Z,38.60
2018-07-30T17:15:59.830Z,40.40
2018-07-30T17:18:34.179Z,41.50
2018-07-30T17:21:08.742Z,43.20
2018-07-30T17:23:43.082Z,43.70
2018-07-30T17:26:17.252Z,44.00
2018-07-30T17:28:51.670Z,45.30
2018-07-30T17:31:25.606Z,46.20
2018-07-30T17:33:59.962Z,46.50
2018-07-30T17:36:34.182Z,48.30
2018-07-30T17:39:09.596Z,49.50
2018-07-30T17:41:44.103Z,48.90
2018-07-30T17:44:19.346Z,49.40
2018-07-30T17:46:54.439Z,49.80
2018-07-30T17:49:29.231Z,49.80
2018-07-30T17:52:03.997Z,50.20
2018-07-30T17:54:38.360Z,51.40
2018-07-30T17:57:12.991Z,51.80
2018-07-30T17:59:47.513Z,52.40
2018-07-30T18:02:22.701Z,52.60
2018-07-30T18:04:57.024Z,52.30
2018-07-30T18:07:31.524Z,51.80
2018-07-30T18:10:06.205Z,51.60
2018-07-30T18:12:40.225Z,52.90
2018-07-30T18:15:14.641Z,54.00
2018-07-30T18:17:49.048Z,55.10
2018-07-30T18:20:23.197Z,55.30
2018-07-30T18:22:57.801Z,55.40
2018-07-30T18:25:32.105Z,54.90
2018-07-30T18:28:06.441Z,55.10
2018-07-30T18:30:40.527Z,56.10
2018-07-30T18:35:49.363Z,56.70
2018-07-30T18:38:23.553Z,56.30
2018-07-30T18:40:57.528Z,55.60
2018-07-30T18:43:31.639Z,55.60
2018-07-30T18:46:05.621Z,56.80
2018-07-30T18:48:39.978Z,57.60
2018-07-30T18:51:13.766Z,57.10
2018-07-30T18:53:48.201Z,56.90
2018-07-30T18:56:22.181Z,57.90
2018-07-30T18:58:56.198Z,58.50
2018-07-30T19:01:30.598Z,58.80
2018-07-30T19:04:04.712Z,58.90
2018-07-30T19:06:39.672Z,59.20
2018-07-30T19:09:14.303Z,59.40
2018-07-30T19:11:48.628Z,59.90
2018-07-30T19:14:22.738Z,60.00
2018-07-30T19:16:57.070Z,60.30
2018-07-30T19:19:31.569Z,61.20
2018-07-30T19:22:05.862Z,60.00
2018-07-30T19:24:40.489Z,60.60
2018-07-30T19:27:14.530Z,60.50
2018-07-30T19:29:48.555Z,60.60
2018-07-30T19:32:22.963Z,61.30
2018-07-30T19:34:57.051Z,61.80
2018-07-30T19:37:31.016Z,63.60
2018-07-30T19:40:05.429Z,63.90
2018-07-30T19:42:40.397Z,63.40
2018-07-30T19:45:14.478Z,63.90
2018-07-30T19:47:48.618Z,63.70
2018-07-30T19:50:22.796Z,64.20
2018-07-30T19:52:56.765Z,64.80
2018-07-30T19:55:30.897Z,64.70
2018-07-30T19:58:05.648Z,65.00
2018-07-30T20:00:39.470Z,65.60
2018-07-30T20:03:13.724Z,66.20
2018-07-30T20:05:47.888Z,66.70
2018-07-30T20:08:22.313Z,66.50
2018-07-30T20:10:56.448Z,66.80
2018-07-30T20:13:30.613Z,67.10
2018-07-30T20:16:04.763Z,67.90
2018-07-30T20:18:43.402Z,67.90
2018-07-30T20:21:18.099Z,68.30
2018-07-30T20:23:52.551Z,68.20
2018-07-30T20:26:26.940Z,68.40
2018-07-30T20:29:01.183Z,68.70
2018-07-30T20:34:10.206Z,69.10
2018-07-30T20:36:45.259Z,69.50
2018-07-30T20:39:19.644Z,69.70
2018-07-30T20:41:54.062Z,69.40
2018-07-30T20:44:28.242Z,69.70
2018-07-30T20:47:02.592Z,69.80
2018-07-30T20:49:36.866Z,69.80
2018-07-30T20:52:11.318Z,69.80
2018-07-30T20:54:45.502Z,70.00
2018-07-30T20:57:20.224Z,69.90
2018-07-30T20:59:54.383Z,69.80
2018-07-30T21:02:28.552Z,69.80
2018-07-30T21:05:02.887Z,70.20
2018-07-30T21:07:36.968Z,70.40
2018-07-30T21:10:11.088Z,70.40
2018-07-30T21:12:45.192Z,70.70
2018-07-30T21:15:19.701Z,70.90
2018-07-30T21:17:53.711Z,71.10
2018-07-30T21:20:28.277Z,71.20
2018-07-30T21:23:02.358Z,71.30
2018-07-30T21:25:36.564Z,71.60
2018-07-30T21:28:10.653Z,72.10
2018-07-30T21:30:44.692Z,72.30
2018-07-30T21:33:19.230Z,72.60
2018-07-30T21:35:53.234Z,73.10
2018-07-30T21:38:27.771Z,74.00
2018-07-30T21:41:02.221Z,73.70
2018-07-30T21:43:36.371Z,74.00
2018-07-30T21:46:10.576Z,73.90
2018-07-30T21:48:44.815Z,74.30
2018-07-30T21:51:18.880Z,74.10
2018-07-30T21:53:53.031Z,73.90
2018-07-30T21:56:27.116Z,73.70
2018-07-30T21:59:01.026Z,73.70
2018-07-30T22:01:35.454Z,73.90
2018-07-30T22:04:09.674Z,74.30
2018-07-30T22:06:44.003Z,74.60
2018-07-30T22:09:18.256Z,74.80
2018-07-30T22:11:52.651Z,76.00
2018-07-30T22:14:26.802Z,75.50
2018-07-30T22:17:00.932Z,75.60
2018-07-30T22:19:35.371Z,75.70
2018-07-30T22:22:09.472Z,75.60
2018-07-30T22:24:43.932Z,75.80
2018-07-30T22:27:18.857Z,75.70
2018-07-30T22:29:53.195Z,75.70
2018-07-30T22:32:27.846Z,75.90
2018-07-30T22:35:02.676Z,75.80
2018-07-30T22:37:37.153Z,75.50
2018-07-30T22:40:11.402Z,75.40
2018-07-30T22:42:46.317Z,75.40
2018-07-30T22:45:20.512Z,75.20
2018-07-30T22:47:55.068Z,75.50
2018-07-30T22:50:29.757Z,75.60
2018-07-30T22:53:03.817Z,74.70
2018-07-30T22:55:38.591Z,75.60
2018-07-30T22:58:12.573Z,75.30
2018-07-30T23:00:46.651Z,75.00
2018-07-30T23:03:20.816Z,75.00
2018-07-30T23:05:55.270Z,75.00
2018-07-30T23:08:29.855Z,75.20
2018-07-30T23:11:04.703Z,75.10
2018-07-30T23:13:39.216Z,75.10
2018-07-30T23:16:13.589Z,75.40
2018-07-30T23:18:48.068Z,75.00
2018-07-30T23:21:22.104Z,74.80
2018-07-30T23:26:30.472Z,75.50
2018-07-30T23:29:04.960Z,75.60
2018-07-30T23:31:39.135Z,75.70
2018-07-30T23:34:13.475Z,75.80
2018-07-30T23:36:47.920Z,76.20
2018-07-30T23:39:21.915Z,76.50
2018-07-30T23:44:30.033Z,76.70
2018-07-30T23:47:04.226Z,76.60
2018-07-30T23:49:38.835Z,77.10
2018-07-30T23:52:12.696Z,77.00
2018-07-30T23:54:46.863Z,77.20
2018-07-30T23:57:21.048Z,76.80
2018-07-30T23:59:55.223Z,77.00
